Time;durP1;ratioP1;P1;durP2;ratioP2;P2;SDS_P1;SDS_P2;PMS_P1;PMS_P2;Temp;Humidity;BMP_temperature;BMP_pressure;BME280_temperature;BME280_humidity;BME280_pressure;Samples;Min_cycle;Max_cycle;Signal;HPM_P1;HPM_P2
2023/12/06 00:01:32;;;;;;;4.13;2.50;;;;;;;;;;4898518;29;20087;-83
2023/12/06 00:03:57;;;;;;;3.78;2.55;;;;;;;;;;4906991;29;20378;-83
2023/12/06 00:06:24;;;;;;;2.95;2.42;;;;;;;;;;4913630;29;20035;-83
2023/12/06 00:08:49;;;;;;;3.90;2.80;;;;;;;;;;4904579;29;20020;-83
2023/12/06 00:11:14;;;;;;;3.40;2.53;;;;;;;;;;4910337;29;20029;-83
2023/12/06 00:13:39;;;;;;;4.03;3.10;;;;;;;;;;4914735;29;20053;-83
2023/12/06 00:16:05;;;;;;;4.03;2.90;;;;;;;;;;4908008;29;20294;-83
2023/12/06 00:18:30;;;;;;;5.25;3.33;;;;;;;;;;4908758;29;20366;-83
2023/12/06 00:20:56;;;;;;;4.43;3.37;;;;;;;;;;4897835;29;20518;-83
2023/12/06 00:23:21;;;;;;;4.97;3.37;;;;;;;;;;4909271;29;20270;-83
2023/12/06 00:25:46;;;;;;;5.22;3.65;;;;;;;;;;4923296;29;20271;-83
2023/12/06 00:28:12;;;;;;;5.10;3.70;;;;;;;;;;4915863;29;20068;-83
2023/12/06 00:30:37;;;;;;;4.13;3.23;;;;;;;;;;4908961;29;20271;-83
2023/12/06 00:33:03;;;;;;;4.70;3.40;;;;;;;;;;4915900;29;20286;-83
2023/12/06 00:35:28;;;;;;;4.90;3.85;;;;;;;;;;4908183;29;20360;-83
2023/12/06 00:37:53;;;;;;;5.37;3.77;;;;;;;;;;4908743;29;20529;-83
2023/12/06 00:40:18;;;;;;;7.67;3.97;;;;;;;;;;4907780;29;20286;-83
2023/12/06 00:42:44;;;;;;;5.80;4.10;;;;;;;;;;4930866;29;20597;-82
2023/12/06 00:45:09;;;;;;;6.43;4.20;;;;;;;;;;4907537;29;20303;-83
2023/12/06 00:47:34;;;;;;;4.75;3.80;;;;;;;;;;4912081;29;20088;-83
2023/12/06 00:49:59;;;;;;;6.13;4.75;;;;;;;;;;4904462;29;20032;-83
2023/12/06 00:52:25;;;;;;;5.80;4.40;;;;;;;;;;4914519;29;20423;-83
2023/12/06 00:54:50;;;;;;;6.13;4.17;;;;;;;;;;4915764;29;20266;-83
2023/12/06 00:57:15;;;;;;;6.77;4.20;;;;;;;;;;4914418;29;20032;-83
2023/12/06 00:59:41;;;;;;;6.05;4.45;;;;;;;;;;4929484;29;20267;-83
2023/12/06 01:02:06;;;;;;;7.07;5.23;;;;;;;;;;4915993;29;20031;-83
2023/12/06 01:04:31;;;;;;;6.33;4.40;;;;;;;;;;4915152;29;20357;-83
2023/12/06 01:06:56;;;;;;;7.35;4.72;;;;;;;;;;4907896;29;20317;-83
2023/12/06 01:09:21;;;;;;;6.20;4.27;;;;;;;;;;4914833;29;20500;-83
2023/12/06 01:11:47;;;;;;;5.50;4.37;;;;;;;;;;4919352;29;20079;-83
2023/12/06 01:14:12;;;;;;;7.53;4.50;;;;;;;;;;4916531;29;20032;-83
2023/12/06 01:16:37;;;;;;;4.03;3.40;;;;;;;;;;4913610;29;20262;-83
2023/12/06 01:19:02;;;;;;;5.63;3.90;;;;;;;;;;4917562;29;20271;-83
2023/12/06 01:21:27;;;;;;;6.43;4.30;;;;;;;;;;4907953;29;20271;-83
2023/12/06 01:23:53;;;;;;;6.22;3.85;;;;;;;;;;4907222;29;20330;-83
2023/12/06 01:26:19;;;;;;;4.40;3.70;;;;;;;;;;4924974;29;20061;-82
2023/12/06 01:28:44;;;;;;;5.27;3.80;;;;;;;;;;4911563;29;20493;-83
2023/12/06 01:31:09;;;;;;;6.07;4.77;;;;;;;;;;4933579;29;20270;-83
2023/12/06 01:33:34;;;;;;;6.70;4.80;;;;;;;;;;4918513;29;20043;-83
2023/12/06 01:36:00;;;;;;;5.27;3.70;;;;;;;;;;4918169;29;20270;-83
2023/12/06 01:38:25;;;;;;;4.97;3.70;;;;;;;;;;4918499;29;20270;-83
2023/12/06 01:40:51;;;;;;;6.50;3.87;;;;;;;;;;4925259;29;20063;-83
2023/12/06 01:43:16;;;;;;;4.22;3.40;;;;;;;;;;4919252;29;20366;-83
2023/12/06 01:45:41;;;;;;;5.00;3.83;;;;;;;;;;4910504;29;20024;-83
2023/12/06 01:48:07;;;;;;;5.53;4.05;;;;;;;;;;4911527;29;20507;-83
2023/12/06 01:50:33;;;;;;;5.80;4.40;;;;;;;;;;4919165;29;20039;-83
2023/12/06 01:52:59;;;;;;;4.57;3.50;;;;;;;;;;4919056;29;20028;-83
2023/12/06 01:55:24;;;;;;;4.47;3.45;;;;;;;;;;4910258;29;20489;-83
2023/12/06 01:57:49;;;;;;;5.07;3.47;;;;;;;;;;4911622;29;20056;-83
2023/12/06 02:00:15;;;;;;;3.97;3.17;;;;;;;;;;4918608;29;20480;-83
2023/12/06 02:02:40;;;;;;;4.50;3.35;;;;;;;;;;4917493;29;20043;-83
2023/12/06 02:05:06;;;;;;;5.28;3.70;;;;;;;;;;4913238;29;20119;-83
2023/12/06 02:07:32;;;;;;;5.05;3.63;;;;;;;;;;4910593;29;20024;-83
2023/12/06 02:09:57;;;;;;;5.18;3.92;;;;;;;;;;4918910;29;20477;-83
2023/12/06 02:12:22;;;;;;;5.03;3.37;;;;;;;;;;4911437;29;20075;-83
2023/12/06 02:14:48;;;;;;;5.20;3.90;;;;;;;;;;4915801;29;20739;-83
2023/12/06 02:17:13;;;;;;;6.47;4.10;;;;;;;;;;4907005;29;20267;-83
2023/12/06 02:19:39;;;;;;;6.13;3.80;;;;;;;;;;4922801;29;20323;-83
2023/12/06 02:22:05;;;;;;;8.10;3.78;;;;;;;;;;4907740;29;20119;-83
2023/12/06 02:24:31;;;;;;;4.82;3.47;;;;;;;;;;4925432;29;20024;-83
2023/12/06 02:26:57;;;;;;;4.85;3.45;;;;;;;;;;4910104;29;20103;-83
2023/12/06 02:29:25;;;;;;;5.53;3.30;;;;;;;;;;4909841;29;20028;-83
2023/12/06 02:31:50;;;;;;;7.47;4.70;;;;;;;;;;4918289;29;20047;-83
2023/12/06 02:34:26;;;;;;;5.68;3.97;;;;;;;;;;4915385;29;20051;-82
2023/12/06 02:36:53;;;;;;;5.88;4.43;;;;;;;;;;4912203;29;20013;-83
2023/12/06 02:39:18;;;;;;;5.53;4.20;;;;;;;;;;4929189;29;20123;-83
2023/12/06 02:41:44;;;;;;;5.35;3.75;;;;;;;;;;4929222;29;20107;-83
2023/12/06 02:44:09;;;;;;;5.63;4.00;;;;;;;;;;4911201;29;20130;-83
2023/12/06 02:46:35;;;;;;;5.97;3.92;;;;;;;;;;4925722;29;20024;-83
2023/12/06 02:49:00;;;;;;;5.15;3.78;;;;;;;;;;4915325;29;20536;-83
2023/12/06 02:51:26;;;;;;;5.83;4.27;;;;;;;;;;4898872;29;20116;-83
2023/12/06 02:53:51;;;;;;;5.60;4.50;;;;;;;;;;4901654;29;20032;-83
2023/12/06 02:56:16;;;;;;;6.65;4.57;;;;;;;;;;4905572;29;20330;-83
2023/12/06 02:58:41;;;;;;;6.60;4.50;;;;;;;;;;4914790;29;20027;-83
2023/12/06 03:01:07;;;;;;;6.13;4.40;;;;;;;;;;4916581;29;20271;-83
2023/12/06 03:03:32;;;;;;;6.00;4.50;;;;;;;;;;4904153;29;20024;-83
2023/12/06 03:05:57;;;;;;;4.97;3.80;;;;;;;;;;4913521;29;20278;-82
2023/12/06 03:08:22;;;;;;;6.07;4.60;;;;;;;;;;4915256;29;20054;-83
2023/12/06 03:10:47;;;;;;;5.77;4.53;;;;;;;;;;4927040;29;20278;-83
2023/12/06 03:13:13;;;;;;;6.10;4.40;;;;;;;;;;4923935;29;20287;-83
2023/12/06 03:15:38;;;;;;;6.47;4.50;;;;;;;;;;4908872;29;20374;-83
2023/12/06 03:18:04;;;;;;;6.38;4.13;;;;;;;;;;4917626;29;20349;-83
2023/12/06 03:20:29;;;;;;;6.00;4.50;;;;;;;;;;4922142;29;20384;-83
2023/12/06 03:22:54;;;;;;;6.53;4.43;;;;;;;;;;4917448;29;20028;-84
2023/12/06 03:25:19;;;;;;;5.73;4.20;;;;;;;;;;4915740;29;20270;-83
2023/12/06 03:27:45;;;;;;;7.03;4.70;;;;;;;;;;4916411;29;20767;-83
2023/12/06 03:30:11;;;;;;;6.53;4.60;;;;;;;;;;4917754;29;20298;-83
2023/12/06 03:32:36;;;;;;;7.55;5.38;;;;;;;;;;4899697;29;20037;-82
2023/12/06 03:35:01;;;;;;;7.35;5.07;;;;;;;;;;4931743;29;20067;-83
2023/12/06 03:37:27;;;;;;;6.50;4.47;;;;;;;;;;4910305;29;20116;-83
2023/12/06 03:39:53;;;;;;;5.53;4.18;;;;;;;;;;4913594;29;20382;-83
2023/12/06 03:42:18;;;;;;;5.80;4.07;;;;;;;;;;4904908;29;20048;-83
2023/12/06 03:44:43;;;;;;;7.27;4.80;;;;;;;;;;4910434;29;20035;-83
2023/12/06 03:47:09;;;;;;;6.17;4.60;;;;;;;;;;4905247;29;20029;-83
2023/12/06 03:49:35;;;;;;;6.50;4.43;;;;;;;;;;4905280;29;20613;-83
2023/12/06 03:52:00;;;;;;;6.45;4.25;;;;;;;;;;4897472;29;20028;-83
2023/12/06 03:54:26;;;;;;;6.70;4.78;;;;;;;;;;4915367;29;20029;-83
2023/12/06 03:56:52;;;;;;;7.40;5.13;;;;;;;;;;4916479;29;20496;-82
2023/12/06 03:59:17;;;;;;;8.95;5.22;;;;;;;;;;4908649;29;20033;-83
2023/12/06 04:01:43;;;;;;;7.60;4.77;;;;;;;;;;4915477;29;20070;-83
2023/12/06 04:04:09;;;;;;;6.25;4.40;;;;;;;;;;4925319;29;20032;-83
2023/12/06 04:06:34;;;;;;;8.68;5.30;;;;;;;;;;4897515;29;20039;-83
2023/12/06 04:08:59;;;;;;;8.47;5.03;;;;;;;;;;4923447;29;20493;-83
2023/12/06 04:11:25;;;;;;;6.83;4.83;;;;;;;;;;4915958;29;20278;-83
2023/12/06 04:13:50;;;;;;;7.60;4.97;;;;;;;;;;4920493;29;20036;-82
2023/12/06 04:16:15;;;;;;;10.03;5.90;;;;;;;;;;4910684;29;20353;-83
2023/12/06 04:18:41;;;;;;;8.93;5.10;;;;;;;;;;4925692;29;20024;-82
2023/12/06 04:21:06;;;;;;;9.85;6.30;;;;;;;;;;4916311;29;20102;-83
2023/12/06 04:23:31;;;;;;;8.05;5.53;;;;;;;;;;4915272;29;20389;-83
2023/12/06 04:25:56;;;;;;;8.63;4.90;;;;;;;;;;4900563;29;20024;-82
2023/12/06 04:28:21;;;;;;;7.50;4.67;;;;;;;;;;4930174;29;20492;-83
2023/12/06 04:30:47;;;;;;;8.10;5.13;;;;;;;;;;4930907;29;20267;-83
2023/12/06 04:33:12;;;;;;;7.23;5.10;;;;;;;;;;4914826;29;20024;-83
2023/12/06 04:35:37;;;;;;;8.00;4.97;;;;;;;;;;4908667;29;20016;-83
2023/12/06 04:38:02;;;;;;;8.60;5.00;;;;;;;;;;4914235;29;20271;-83
2023/12/06 04:40:27;;;;;;;7.75;4.25;;;;;;;;;;4906723;29;20692;-83
2023/12/06 04:42:53;;;;;;;6.70;5.07;;;;;;;;;;4910344;29;20032;-83
2023/12/06 04:45:18;;;;;;;7.60;5.07;;;;;;;;;;4904066;29;20296;-83
2023/12/06 04:47:43;;;;;;;6.83;4.73;;;;;;;;;;4905806;29;20043;-83
2023/12/06 04:50:09;;;;;;;7.77;4.77;;;;;;;;;;4905623;29;20266;-83
2023/12/06 04:52:34;;;;;;;8.60;5.78;;;;;;;;;;4914765;29;20274;-83
2023/12/06 04:55:04;;;;;;;7.68;5.10;;;;;;;;;;4922786;29;20488;-83
2023/12/06 04:57:29;;;;;;;9.60;5.63;;;;;;;;;;4930105;29;20495;-82
2023/12/06 04:59:54;;;;;;;7.78;5.53;;;;;;;;;;4915203;29;20024;-83
2023/12/06 05:02:20;;;;;;;8.27;5.47;;;;;;;;;;4930588;29;20035;-83
2023/12/06 05:04:45;;;;;;;13.60;6.17;;;;;;;;;;4920234;29;20025;-83
2023/12/06 05:07:10;;;;;;;9.10;5.97;;;;;;;;;;4905471;29;20097;-83
2023/12/06 05:09:35;;;;;;;8.30;5.27;;;;;;;;;;4906820;29;20496;-81
2023/12/06 05:12:00;;;;;;;8.83;5.63;;;;;;;;;;4912462;29;20406;-83
2023/12/06 05:14:26;;;;;;;9.33;5.20;;;;;;;;;;4896432;29;20028;-83
2023/12/06 05:16:51;;;;;;;9.88;5.78;;;;;;;;;;4911374;29;20278;-82
2023/12/06 05:19:16;;;;;;;10.20;5.80;;;;;;;;;;4930246;29;20031;-83
2023/12/06 05:21:41;;;;;;;11.97;6.00;;;;;;;;;;4908125;29;20024;-83
2023/12/06 05:24:07;;;;;;;9.30;5.93;;;;;;;;;;4914197;29;20286;-83
2023/12/06 05:26:32;;;;;;;9.43;5.65;;;;;;;;;;4930366;29;20083;-83
2023/12/06 05:29:00;;;;;;;6.88;5.00;;;;;;;;;;4926930;29;20494;-83
2023/12/06 05:31:25;;;;;;;7.82;5.55;;;;;;;;;;4905853;29;20028;-82
2023/12/06 05:33:50;;;;;;;11.03;5.67;;;;;;;;;;4915301;29;20024;-83
2023/12/06 05:36:16;;;;;;;10.87;5.97;;;;;;;;;;4915463;29;20289;-83
2023/12/06 05:38:41;;;;;;;9.83;5.73;;;;;;;;;;4903973;29;20628;-83
2023/12/06 05:41:06;;;;;;;10.20;6.00;;;;;;;;;;4899222;29;20290;-83
2023/12/06 05:43:32;;;;;;;7.63;4.85;;;;;;;;;;4917074;29;20279;-83
2023/12/06 05:45:57;;;;;;;10.33;5.27;;;;;;;;;;4916586;29;20028;-83
2023/12/06 05:48:22;;;;;;;10.25;5.97;;;;;;;;;;4916585;29;20250;-83
2023/12/06 05:50:48;;;;;;;9.47;5.83;;;;;;;;;;4916840;29;20068;-82
2023/12/06 05:53:13;;;;;;;10.52;5.80;;;;;;;;;;4916395;29;20294;-82
2023/12/06 05:55:40;;;;;;;9.98;5.60;;;;;;;;;;4931172;29;20026;-82
2023/12/06 05:58:05;;;;;;;9.25;6.45;;;;;;;;;;4919907;29;20052;-83
2023/12/06 06:00:30;;;;;;;9.23;6.68;;;;;;;;;;4934453;29;20043;-82
2023/12/06 06:02:58;;;;;;;8.90;5.38;;;;;;;;;;4919836;29;20024;-82
2023/12/06 06:05:23;;;;;;;8.77;5.85;;;;;;;;;;4919926;29;20051;-82
2023/12/06 06:07:48;;;;;;;9.15;6.38;;;;;;;;;;4920090;29;20055;-82
2023/12/06 06:10:13;;;;;;;9.13;5.77;;;;;;;;;;4934302;29;20052;-83
2023/12/06 06:12:39;;;;;;;8.53;6.27;;;;;;;;;;4919665;29;20286;-82
2023/12/06 06:15:05;;;;;;;8.50;6.27;;;;;;;;;;4919613;29;20263;-83
2023/12/06 06:17:30;;;;;;;10.13;6.57;;;;;;;;;;4919644;29;20251;-83
2023/12/06 06:19:55;;;;;;;10.93;6.93;;;;;;;;;;4919579;29;20024;-83
2023/12/06 06:22:20;;;;;;;8.97;5.90;;;;;;;;;;4934112;29;20318;-83
2023/12/06 06:24:46;;;;;;;9.60;5.87;;;;;;;;;;4934132;29;20277;-83
2023/12/06 06:27:11;;;;;;;9.75;6.50;;;;;;;;;;4919342;29;20048;-83
2023/12/06 06:29:37;;;;;;;9.97;6.53;;;;;;;;;;4934034;29;20040;-83
2023/12/06 06:32:03;;;;;;;11.40;6.65;;;;;;;;;;4919336;29;20039;-83
2023/12/06 06:34:28;;;;;;;9.68;6.57;;;;;;;;;;4933957;29;20536;-83
2023/12/06 06:36:54;;;;;;;13.10;7.20;;;;;;;;;;4919308;29;20020;-82
2023/12/06 06:39:20;;;;;;;10.65;6.85;;;;;;;;;;4919240;29;20259;-83
2023/12/06 06:41:46;;;;;;;11.35;7.28;;;;;;;;;;4933771;29;20024;-83
2023/12/06 06:44:11;;;;;;;9.05;5.93;;;;;;;;;;4933823;29;20024;-83
2023/12/06 06:46:36;;;;;;;13.80;6.88;;;;;;;;;;4917880;29;20119;-83
2023/12/06 06:49:02;;;;;;;9.70;6.33;;;;;;;;;;4919118;29;20066;-83
2023/12/06 06:51:32;;;;;;;8.43;5.82;;;;;;;;;;4933566;29;20278;-83
2023/12/06 06:53:58;;;;;;;9.93;6.88;;;;;;;;;;4919042;29;20100;-83
2023/12/06 06:56:23;;;;;;;11.73;7.40;;;;;;;;;;4918945;29;20016;-83
2023/12/06 06:58:48;;;;;;;9.70;6.57;;;;;;;;;;4918885;29;20477;-83
2023/12/06 07:01:13;;;;;;;10.32;6.35;;;;;;;;;;4918843;29;20024;-83
2023/12/06 07:03:38;;;;;;;10.37;7.07;;;;;;;;;;4933474;29;20027;-83
2023/12/06 07:06:04;;;;;;;12.50;7.20;;;;;;;;;;4918777;29;20058;-83
2023/12/06 07:08:29;;;;;;;9.07;6.75;;;;;;;;;;4916616;29;20262;-83
2023/12/06 07:10:55;;;;;;;9.40;6.72;;;;;;;;;;4933301;29;20020;-82
2023/12/06 07:13:22;;;;;;;8.57;5.93;;;;;;;;;;4933246;29;20034;-82
2023/12/06 07:15:47;;;;;;;11.40;6.82;;;;;;;;;;4918548;29;20099;-82
2023/12/06 07:18:12;;;;;;;12.00;7.40;;;;;;;;;;4918595;29;20444;-83
2023/12/06 07:20:38;;;;;;;9.60;6.47;;;;;;;;;;4918744;29;20720;-83
2023/12/06 07:23:03;;;;;;;11.40;6.40;;;;;;;;;;4932980;29;20023;-82
2023/12/06 07:25:29;;;;;;;12.68;6.90;;;;;;;;;;4932962;29;20024;-83
2023/12/06 07:27:55;;;;;;;10.32;6.38;;;;;;;;;;4918210;29;20048;-83
2023/12/06 07:30:20;;;;;;;10.40;6.55;;;;;;;;;;4932904;29;20048;-83
2023/12/06 07:32:45;;;;;;;10.75;7.03;;;;;;;;;;4932819;29;20023;-83
2023/12/06 07:35:10;;;;;;;9.83;7.00;;;;;;;;;;4918226;29;20110;-82
2023/12/06 07:37:36;;;;;;;9.38;6.63;;;;;;;;;;4916898;29;20255;-83
2023/12/06 07:40:03;;;;;;;13.32;7.35;;;;;;;;;;4918171;29;20488;-83
2023/12/06 07:42:28;;;;;;;8.52;6.40;;;;;;;;;;4918127;29;20031;-82
2023/12/06 07:44:54;;;;;;;12.05;7.13;;;;;;;;;;4918079;29;20023;-82
2023/12/06 07:47:19;;;;;;;10.80;7.07;;;;;;;;;;4916625;29;20481;-83
2023/12/06 07:49:45;;;;;;;11.82;6.90;;;;;;;;;;4913563;29;20054;-83
2023/12/06 07:52:10;;;;;;;12.20;7.38;;;;;;;;;;4899131;29;20082;-83
2023/12/06 07:54:35;;;;;;;15.48;8.02;;;;;;;;;;4897816;29;20052;-83
2023/12/06 07:57:00;;;;;;;10.65;6.70;;;;;;;;;;4899006;29;20020;-83
2023/12/06 07:59:26;;;;;;;13.03;7.63;;;;;;;;;;4899075;29;20024;-83
2023/12/06 08:01:51;;;;;;;11.87;7.20;;;;;;;;;;4898904;29;20343;-83
2023/12/06 08:04:16;;;;;;;11.00;7.10;;;;;;;;;;4898909;29;20716;-83
2023/12/06 08:06:41;;;;;;;9.43;6.90;;;;;;;;;;4898767;29;20736;-82
2023/12/06 08:09:11;;;;;;;13.70;7.43;;;;;;;;;;4913276;29;20029;-83
2023/12/06 08:11:36;;;;;;;14.10;7.60;;;;;;;;;;4898655;29;20031;-83
2023/12/06 08:14:02;;;;;;;12.27;7.80;;;;;;;;;;4898753;29;20028;-83
2023/12/06 08:16:27;;;;;;;13.10;7.90;;;;;;;;;;4913159;29;20020;-82
2023/12/06 08:18:53;;;;;;;10.95;7.25;;;;;;;;;;4913023;29;20072;-82
2023/12/06 08:21:18;;;;;;;14.53;7.83;;;;;;;;;;4913075;29;20021;-83
2023/12/06 08:23:43;;;;;;;11.47;7.67;;;;;;;;;;4913031;29;20318;-82
2023/12/06 08:26:10;;;;;;;11.00;7.67;;;;;;;;;;4897288;29;20043;-82
2023/12/06 08:28:36;;;;;;;13.23;7.82;;;;;;;;;;4898391;29;20776;-82
2023/12/06 08:31:01;;;;;;;12.05;7.78;;;;;;;;;;4897241;29;20104;-82
2023/12/06 08:33:26;;;;;;;11.63;7.55;;;;;;;;;;4898377;29;20466;-83
2023/12/06 08:35:51;;;;;;;10.93;7.77;;;;;;;;;;4897254;29;20029;-83
2023/12/06 08:38:17;;;;;;;11.97;7.47;;;;;;;;;;4912870;29;20711;-82
2023/12/06 08:40:42;;;;;;;12.40;7.88;;;;;;;;;;4898359;29;20024;-83
2023/12/06 08:43:07;;;;;;;13.25;8.10;;;;;;;;;;4912835;29;20080;-83
2023/12/06 08:45:33;;;;;;;13.73;8.00;;;;;;;;;;4898279;29;20226;-83
2023/12/06 08:47:59;;;;;;;11.77;8.20;;;;;;;;;;4898228;29;20025;-83
2023/12/06 08:50:25;;;;;;;10.20;7.18;;;;;;;;;;4898276;29;20521;-83
2023/12/06 08:52:50;;;;;;;13.25;7.45;;;;;;;;;;4898153;29;20033;-83
2023/12/06 08:55:16;;;;;;;12.40;7.60;;;;;;;;;;4912641;29;20060;-83
2023/12/06 08:57:41;;;;;;;13.68;8.52;;;;;;;;;;4912695;29;20263;-82
2023/12/06 09:00:07;;;;;;;13.10;8.02;;;;;;;;;;4912636;29;20032;-83
2023/12/06 09:02:35;;;;;;;14.15;8.60;;;;;;;;;;4898181;29;20489;-82
2023/12/06 09:05:01;;;;;;;15.82;8.20;;;;;;;;;;4912583;29;20043;-83
2023/12/06 09:07:26;;;;;;;12.77;8.50;;;;;;;;;;4898077;29;20482;-83
2023/12/06 09:09:51;;;;;;;13.47;8.27;;;;;;;;;;4912566;29;20020;-83
2023/12/06 09:12:16;;;;;;;11.63;6.70;;;;;;;;;;4898236;29;20037;-83
2023/12/06 09:14:42;;;;;;;13.63;7.97;;;;;;;;;;4912519;29;20669;-83
2023/12/06 09:17:08;;;;;;;15.75;8.80;;;;;;;;;;4897926;29;20803;-83
2023/12/06 09:19:33;;;;;;;12.05;7.63;;;;;;;;;;4912525;29;20048;-83
2023/12/06 09:21:58;;;;;;;13.00;7.67;;;;;;;;;;4897870;29;20083;-83
2023/12/06 09:24:24;;;;;;;12.77;8.17;;;;;;;;;;4897974;29;20824;-82
2023/12/06 09:26:50;;;;;;;15.47;8.10;;;;;;;;;;4897892;29;20024;-83
2023/12/06 09:29:15;;;;;;;12.10;7.63;;;;;;;;;;4912355;29;20270;-83
2023/12/06 09:31:40;;;;;;;15.60;8.60;;;;;;;;;;4913885;29;20100;-82
2023/12/06 09:34:06;;;;;;;15.07;8.23;;;;;;;;;;4900298;29;20473;-82
2023/12/06 09:36:32;;;;;;;11.98;8.05;;;;;;;;;;4916046;29;20258;-83
2023/12/06 09:38:58;;;;;;;14.10;8.23;;;;;;;;;;4901505;29;20024;-82
2023/12/06 09:41:30;;;;;;;9.73;6.78;;;;;;;;;;4901493;29;20040;-82
2023/12/06 09:43:55;;;;;;;14.77;8.63;;;;;;;;;;4900152;29;20031;-82
2023/12/06 09:46:21;;;;;;;13.93;9.02;;;;;;;;;;4915807;29;20025;-82
2023/12/06 09:48:46;;;;;;;12.77;8.32;;;;;;;;;;4901394;29;20017;-83
2023/12/06 09:51:11;;;;;;;17.25;8.25;;;;;;;;;;4915731;29;20056;-82
2023/12/06 09:53:38;;;;;;;12.97;8.23;;;;;;;;;;4901169;29;20103;-82
2023/12/06 09:56:03;;;;;;;12.93;8.27;;;;;;;;;;4899987;29;20259;-82
2023/12/06 09:58:28;;;;;;;10.73;7.28;;;;;;;;;;4915566;29;20021;-82
2023/12/06 10:00:54;;;;;;;16.40;7.83;;;;;;;;;;4899929;29;20029;-82
2023/12/06 10:03:21;;;;;;;13.57;8.60;;;;;;;;;;4901045;29;20593;-82
2023/12/06 10:05:55;;;;;;;13.35;8.80;;;;;;;;;;4900976;29;20036;-83
2023/12/06 10:08:21;;;;;;;12.13;8.15;;;;;;;;;;4915513;29;20024;-82
2023/12/06 10:10:46;;;;;;;14.07;8.60;;;;;;;;;;4915420;29;20084;-82
2023/12/06 10:13:11;;;;;;;12.75;8.38;;;;;;;;;;4900845;29;20112;-82
2023/12/06 10:15:37;;;;;;;14.70;9.27;;;;;;;;;;4915324;29;20025;-83
2023/12/06 10:18:03;;;;;;;12.80;8.20;;;;;;;;;;4900831;29;20263;-83
2023/12/06 10:20:29;;;;;;;13.18;8.82;;;;;;;;;;4915276;29;20020;-82
2023/12/06 10:22:54;;;;;;;12.95;8.35;;;;;;;;;;4900672;29;20044;-83
2023/12/06 10:25:20;;;;;;;13.40;8.40;;;;;;;;;;4915227;29;20025;-83
2023/12/06 10:27:45;;;;;;;12.20;7.57;;;;;;;;;;4914986;29;20063;-82
2023/12/06 10:30:11;;;;;;;12.30;7.88;;;;;;;;;;4900658;29;20248;-83
2023/12/06 10:32:36;;;;;;;14.30;8.55;;;;;;;;;;4900470;29;20521;-83
2023/12/06 10:35:05;;;;;;;12.43;7.87;;;;;;;;;;4914977;29;20129;-83
2023/12/06 10:37:31;;;;;;;11.43;7.38;;;;;;;;;;4914897;29;20255;-82
2023/12/06 10:40:06;;;;;;;15.25;8.57;;;;;;;;;;4900393;29;20025;-82
2023/12/06 10:42:32;;;;;;;18.45;8.00;;;;;;;;;;4898132;29;20080;-82
2023/12/06 10:44:59;;;;;;;14.13;8.93;;;;;;;;;;4914674;29;20024;-82
2023/12/06 10:47:25;;;;;;;10.65;7.50;;;;;;;;;;4914812;29;20481;-83
2023/12/06 10:49:51;;;;;;;11.93;7.90;;;;;;;;;;4898969;29;20076;-82
2023/12/06 10:52:18;;;;;;;16.40;8.93;;;;;;;;;;4900195;29;20036;-82
2023/12/06 10:54:45;;;;;;;15.25;8.52;;;;;;;;;;4900197;29;20091;-82
2023/12/06 10:57:10;;;;;;;14.25;7.72;;;;;;;;;;4900087;29;20509;-82
2023/12/06 10:59:37;;;;;;;14.20;7.68;;;;;;;;;;4914497;29;20056;-82
2023/12/06 11:02:02;;;;;;;12.02;7.53;;;;;;;;;;4914436;29;20127;-83
2023/12/06 11:04:30;;;;;;;11.05;7.22;;;;;;;;;;4899923;29;20128;-82
2023/12/06 11:06:59;;;;;;;12.65;8.18;;;;;;;;;;4898668;29;20021;-83
2023/12/06 11:09:28;;;;;;;15.82;9.40;;;;;;;;;;4914355;29;20115;-82
2023/12/06 11:12:05;;;;;;;12.27;8.60;;;;;;;;;;4914268;29;20033;-82
2023/12/06 11:14:49;;;;;;;14.15;8.48;;;;;;;;;;4898565;29;20575;-82
2023/12/06 11:17:20;;;;;;;15.48;7.88;;;;;;;;;;4899726;29;20112;-82
2023/12/06 11:19:46;;;;;;;13.52;8.00;;;;;;;;;;4899711;29;20031;-83
2023/12/06 11:22:12;;;;;;;14.18;7.75;;;;;;;;;;4914095;29;20033;-83
2023/12/06 11:24:38;;;;;;;13.80;8.48;;;;;;;;;;4899585;29;20020;-83
2023/12/06 11:27:04;;;;;;;11.30;7.32;;;;;;;;;;4898122;29;20075;-83
2023/12/06 11:29:30;;;;;;;14.38;8.27;;;;;;;;;;4898224;29;20028;-82
2023/12/06 11:31:56;;;;;;;12.15;8.13;;;;;;;;;;4899357;29;20414;-82
2023/12/06 11:34:29;;;;;;;12.18;7.50;;;;;;;;;;4899426;29;20385;-82
2023/12/06 11:36:58;;;;;;;11.02;7.47;;;;;;;;;;4913871;29;20496;-82
2023/12/06 11:39:23;;;;;;;10.27;6.32;;;;;;;;;;4913799;29;20031;-82
2023/12/06 11:41:58;;;;;;;12.85;7.85;;;;;;;;;;4899257;29;20103;-82
2023/12/06 11:44:24;;;;;;;13.10;7.50;;;;;;;;;;4899338;29;20088;-82
2023/12/06 11:46:50;;;;;;;12.07;7.07;;;;;;;;;;4899270;29;20024;-82
2023/12/06 11:49:16;;;;;;;11.52;7.18;;;;;;;;;;4899141;29;20437;-83
2023/12/06 11:51:41;;;;;;;13.18;7.80;;;;;;;;;;4899020;29;20033;-82
2023/12/06 11:54:06;;;;;;;12.65;8.13;;;;;;;;;;4929461;29;20103;-83
2023/12/06 11:56:32;;;;;;;16.38;8.30;;;;;;;;;;4916703;29;20020;-82
2023/12/06 11:58:57;;;;;;;11.98;7.43;;;;;;;;;;4932992;29;20030;-82
2023/12/06 12:01:23;;;;;;;11.70;7.53;;;;;;;;;;4932441;29;20024;-83
2023/12/06 12:03:49;;;;;;;15.07;7.95;;;;;;;;;;4917772;29;20024;-83
2023/12/06 12:06:15;;;;;;;12.50;7.10;;;;;;;;;;4917754;29;20016;-82
2023/12/06 12:08:41;;;;;;;13.40;7.38;;;;;;;;;;4916447;29;20384;-82
2023/12/06 12:11:07;;;;;;;10.93;7.07;;;;;;;;;;4917647;29;20017;-82
2023/12/06 12:13:35;;;;;;;10.30;6.40;;;;;;;;;;4917558;29;20031;-82
2023/12/06 12:16:03;;;;;;;12.80;7.85;;;;;;;;;;4916238;29;20012;-82
2023/12/06 12:18:29;;;;;;;11.70;6.50;;;;;;;;;;4917516;29;20035;-82
2023/12/06 12:20:55;;;;;;;18.73;7.45;;;;;;;;;;4932286;29;20024;-82
2023/12/06 12:23:20;;;;;;;9.85;6.35;;;;;;;;;;4917424;29;20033;-82
2023/12/06 12:25:47;;;;;;;11.20;6.65;;;;;;;;;;4917419;29;20028;-82
2023/12/06 12:28:15;;;;;;;12.07;6.50;;;;;;;;;;4917265;29;20501;-82
2023/12/06 12:30:40;;;;;;;10.60;6.07;;;;;;;;;;4931935;29;20034;-82
2023/12/06 12:33:06;;;;;;;12.37;6.90;;;;;;;;;;4917322;29;20107;-82
2023/12/06 12:35:31;;;;;;;8.88;5.80;;;;;;;;;;4916131;29;20255;-82
2023/12/06 12:37:56;;;;;;;9.88;5.80;;;;;;;;;;4915977;29;20046;-82
2023/12/06 12:40:22;;;;;;;13.10;6.80;;;;;;;;;;4931893;29;20031;-82
2023/12/06 12:42:48;;;;;;;13.02;7.10;;;;;;;;;;4917185;29;20247;-82
2023/12/06 12:45:19;;;;;;;11.27;6.47;;;;;;;;;;4931780;29;20020;-83
2023/12/06 12:47:45;;;;;;;10.68;6.32;;;;;;;;;;4931811;29;20023;-82
2023/12/06 12:50:16;;;;;;;10.35;6.30;;;;;;;;;;4931742;29;20469;-82
2023/12/06 12:52:41;;;;;;;10.98;5.47;;;;;;;;;;4917050;29;20024;-82
2023/12/06 12:55:06;;;;;;;8.83;5.90;;;;;;;;;;4915872;29;20028;-82
2023/12/06 12:57:35;;;;;;;9.05;5.18;;;;;;;;;;4917063;29;20247;-83
2023/12/06 13:00:01;;;;;;;10.25;5.35;;;;;;;;;;4917050;29;20024;-83
2023/12/06 13:02:27;;;;;;;10.65;5.47;;;;;;;;;;4931595;29;20039;-82
2023/12/06 13:04:52;;;;;;;10.90;5.93;;;;;;;;;;4917051;29;20032;-82
2023/12/06 13:07:17;;;;;;;12.13;5.97;;;;;;;;;;4934240;29;20026;-83
2023/12/06 13:09:42;;;;;;;10.13;5.63;;;;;;;;;;4919658;29;20024;-82
2023/12/06 13:12:08;;;;;;;6.33;4.77;;;;;;;;;;4935372;29;20842;-82
2023/12/06 13:14:33;;;;;;;7.38;5.72;;;;;;;;;;4920799;29;20603;-82
2023/12/06 13:16:59;;;;;;;14.07;5.97;;;;;;;;;;4920783;29;20027;-82
2023/12/06 13:19:24;;;;;;;9.38;5.75;;;;;;;;;;4919530;29;20020;-82
2023/12/06 13:21:49;;;;;;;14.23;6.40;;;;;;;;;;4935207;29;20047;-82
2023/12/06 13:24:15;;;;;;;7.20;4.87;;;;;;;;;;4935207;29;20079;-83
2023/12/06 13:26:40;;;;;;;9.65;5.38;;;;;;;;;;4920628;29;20020;-82
2023/12/06 13:29:05;;;;;;;7.27;4.70;;;;;;;;;;4919183;29;20071;-82
2023/12/06 13:31:31;;;;;;;9.90;5.00;;;;;;;;;;4919299;29;20282;-82
2023/12/06 13:33:56;;;;;;;8.77;5.27;;;;;;;;;;4935141;29;20496;-82
2023/12/06 13:36:21;;;;;;;7.03;4.67;;;;;;;;;;4919276;29;20020;-82
2023/12/06 13:38:46;;;;;;;7.20;4.93;;;;;;;;;;4935034;29;20338;-82
2023/12/06 13:41:11;;;;;;;9.80;4.77;;;;;;;;;;4920414;29;20271;-83
2023/12/06 13:43:37;;;;;;;13.67;5.40;;;;;;;;;;4920276;29;20302;-82
2023/12/06 13:46:02;;;;;;;6.60;4.03;;;;;;;;;;4920246;29;20055;-82
2023/12/06 13:48:27;;;;;;;8.98;5.25;;;;;;;;;;4920279;29;20024;-82
2023/12/06 13:50:52;;;;;;;9.87;4.53;;;;;;;;;;4920143;29;20076;-82
2023/12/06 13:53:18;;;;;;;7.55;5.03;;;;;;;;;;4918829;29;20028;-83
2023/12/06 13:55:43;;;;;;;10.97;5.60;;;;;;;;;;4934789;29;20024;-82
2023/12/06 13:58:08;;;;;;;8.90;4.53;;;;;;;;;;4920095;29;20279;-82
2023/12/06 14:00:34;;;;;;;9.80;5.20;;;;;;;;;;4918750;29;20278;-82
2023/12/06 14:03:00;;;;;;;9.35;4.82;;;;;;;;;;4918773;29;20341;-83
2023/12/06 14:05:25;;;;;;;8.07;4.70;;;;;;;;;;4919925;29;20047;-82
2023/12/06 14:07:50;;;;;;;8.50;4.53;;;;;;;;;;4918678;29;20428;-83
2023/12/06 14:10:16;;;;;;;8.57;4.70;;;;;;;;;;4919897;29;20555;-83
2023/12/06 14:12:41;;;;;;;7.07;4.13;;;;;;;;;;4919837;29;20627;-82
2023/12/06 14:15:06;;;;;;;8.03;4.97;;;;;;;;;;4918469;29;20774;-82
2023/12/06 14:17:33;;;;;;;7.25;4.13;;;;;;;;;;4919338;29;20089;-82
2023/12/06 14:19:58;;;;;;;7.88;4.07;;;;;;;;;;4919718;29;20498;-82
2023/12/06 14:22:25;;;;;;;7.77;4.53;;;;;;;;;;4919623;29;20036;-82
2023/12/06 14:24:50;;;;;;;7.88;4.55;;;;;;;;;;4934100;29;20259;-82
2023/12/06 14:27:15;;;;;;;8.00;4.83;;;;;;;;;;4933963;29;20048;-83
2023/12/06 14:29:40;;;;;;;10.15;5.07;;;;;;;;;;4918301;29;20773;-82